createdAt,value
2023-05-05T00:02:21.191Z,0.90
2023-05-05T00:12:25.273Z,0.93
2023-05-05T00:17:27.419Z,1.40
2023-05-05T00:22:29.541Z,1.40
2023-05-05T00:27:31.666Z,0.90
2023-05-05T00:37:36.140Z,1.25
2023-05-05T00:42:43.034Z,1.20
2023-05-05T00:47:51.503Z,1.27
2023-05-05T00:52:56.936Z,1.30
2023-05-05T00:57:59.956Z,1.27
2023-05-05T01:03:02.313Z,1.33
2023-05-05T01:08:24.786Z,1.30
2023-05-05T01:13:42.943Z,1.40
2023-05-05T01:19:07.998Z,1.50
2023-05-05T01:24:50.281Z,1.85
2023-05-05T01:35:18.295Z,1.90
2023-05-05T01:40:23.157Z,1.70
2023-05-05T01:45:28.722Z,1.70
2023-05-05T01:50:32.048Z,1.60
2023-05-05T01:55:35.725Z,1.58
2023-05-05T02:00:38.812Z,1.80
2023-05-05T02:05:43.262Z,1.42
2023-05-05T02:10:47.818Z,1.50
2023-05-05T02:15:51.092Z,1.20
2023-05-05T02:20:53.430Z,1.48
2023-05-05T02:25:59.944Z,1.50
2023-05-05T02:31:04.916Z,1.27
2023-05-05T02:36:16.632Z,1.70
2023-05-05T02:41:28.713Z,1.90
2023-05-05T02:46:31.916Z,1.88
2023-05-05T02:51:34.074Z,1.83
2023-05-05T02:56:45.395Z,1.77
2023-05-05T03:01:51.223Z,1.80
2023-05-05T03:06:59.271Z,1.48
2023-05-05T03:12:07.792Z,1.00
2023-05-05T03:17:25.020Z,1.15
2023-05-05T03:22:27.850Z,1.20
2023-05-05T03:27:31.021Z,0.90
2023-05-05T03:32:33.499Z,0.85
2023-05-05T03:37:35.669Z,1.23
2023-05-05T03:42:37.908Z,1.00
2023-05-05T03:47:40.239Z,1.05
2023-05-05T03:52:43.167Z,1.27
2023-05-05T04:02:48.118Z,0.85
2023-05-05T04:07:53.289Z,0.60
2023-05-05T04:12:55.878Z,0.50
2023-05-05T04:17:58.238Z,0.90
2023-05-05T04:23:00.880Z,0.70
2023-05-05T04:33:06.656Z,0.70
2023-05-05T04:38:09.139Z,0.82
2023-05-05T04:53:15.939Z,0.60
2023-05-05T04:58:18.670Z,0.55
2023-05-05T05:03:22.351Z,0.65
2023-05-05T05:08:25.306Z,0.80
2023-05-05T05:13:27.453Z,0.47
2023-05-05T05:18:29.720Z,0.90
2023-05-05T05:28:34.019Z,0.68
2023-05-05T05:38:38.053Z,0.60
2023-05-05T05:43:41.698Z,0.60
2023-05-05T05:48:44.350Z,0.63
2023-05-05T05:53:46.488Z,0.73
2023-05-05T05:58:49.258Z,0.50
2023-05-05T06:03:52.023Z,0.45
2023-05-05T06:08:54.854Z,0.93
2023-05-05T06:13:57.089Z,0.55
2023-05-05T06:18:59.258Z,0.30
2023-05-05T06:24:01.430Z,0.50
2023-05-05T06:29:03.885Z,0.30
2023-05-05T06:34:06.014Z,0.50
2023-05-05T06:39:08.090Z,0.45
2023-05-05T06:44:11.433Z,0.85
2023-05-05T06:49:13.549Z,0.77
2023-05-05T06:54:15.606Z,0.80
2023-05-05T06:59:17.778Z,0.70
2023-05-05T07:04:19.905Z,0.65
2023-05-05T07:14:24.537Z,0.50
2023-05-05T07:19:26.697Z,0.77
2023-05-05T07:24:28.741Z,0.40
2023-05-05T07:34:34.586Z,0.40
2023-05-05T07:39:36.729Z,0.50
2023-05-05T07:49:40.713Z,0.70
2023-05-05T07:59:44.938Z,0.50
2023-05-05T08:09:48.947Z,0.85
2023-05-05T08:19:53.324Z,0.60
2023-05-05T08:24:55.507Z,0.75
2023-05-05T08:29:58.410Z,0.80
2023-05-05T08:35:04.826Z,0.65
2023-05-05T08:40:08.068Z,0.60
2023-05-05T08:45:11.234Z,0.93
2023-05-05T08:50:14.403Z,0.68
2023-05-05T08:55:25.780Z,0.90
2023-05-05T09:00:28.234Z,0.77
2023-05-05T09:05:30.282Z,0.75
2023-05-05T09:20:38.576Z,1.05
2023-05-05T09:25:44.661Z,0.60
2023-05-05T09:30:47.716Z,0.73
2023-05-05T09:35:56.040Z,0.73
2023-05-05T09:40:58.054Z,1.08
2023-05-05T09:46:08.544Z,0.70
2023-05-05T09:51:10.973Z,1.02
2023-05-05T09:56:13.162Z,0.82
2023-05-05T10:01:24.592Z,0.82
2023-05-05T10:06:47.576Z,1.13
2023-05-05T10:11:49.870Z,0.90
2023-05-05T10:16:53.598Z,0.98
2023-05-05T10:22:02.837Z,1.00
2023-05-05T10:27:12.730Z,0.70
2023-05-05T10:37:50.754Z,1.23
2023-05-05T10:42:54.343Z,0.85
2023-05-05T10:47:59.800Z,1.02
2023-05-05T10:53:23.287Z,0.70
2023-05-05T10:58:58.398Z,0.77
2023-05-05T11:04:21.329Z,0.82
2023-05-05T11:09:30.027Z,0.70
2023-05-05T11:14:32.125Z,0.95
2023-05-05T11:24:45.081Z,0.75
2023-05-05T11:35:08.179Z,0.85
2023-05-05T11:45:24.610Z,0.98
2023-05-05T11:50:27.523Z,0.85
2023-05-05T11:55:30.708Z,0.80
2023-05-05T12:00:34.032Z,0.70
2023-05-05T12:05:36.986Z,0.77
2023-05-05T12:10:39.336Z,0.80
2023-05-05T12:15:41.362Z,0.80
2023-05-05T12:20:44.496Z,0.60
2023-05-05T12:25:46.554Z,0.60
2023-05-05T12:36:01.601Z,0.65
2023-05-05T12:41:03.754Z,0.70
2023-05-05T12:46:06.213Z,0.50
2023-05-05T12:51:18.631Z,0.68
2023-05-05T12:56:35.648Z,0.80
2023-05-05T13:01:51.800Z,0.80
2023-05-05T13:07:16.935Z,0.85
2023-05-05T13:12:19.295Z,0.90
2023-05-05T13:17:21.384Z,0.80
2023-05-05T13:27:25.243Z,0.90
2023-05-05T13:37:29.150Z,0.77
2023-05-05T13:42:31.289Z,1.05
2023-05-05T13:47:33.483Z,1.08
2023-05-05T13:52:35.496Z,1.35
2023-05-05T13:57:37.470Z,1.10
2023-05-05T14:02:39.515Z,1.08
2023-05-05T14:12:43.686Z,1.30
2023-05-05T14:17:45.706Z,1.10
2023-05-05T14:27:51.589Z,0.95
2023-05-05T14:32:53.736Z,0.77
2023-05-05T14:42:57.927Z,1.38
2023-05-05T14:48:00.249Z,1.30
2023-05-05T14:53:03.366Z,1.10
2023-05-05T14:58:05.561Z,1.13
2023-05-05T15:03:07.783Z,0.90
2023-05-05T15:08:10.090Z,0.68
2023-05-05T15:18:14.197Z,0.82
2023-05-05T15:28:18.832Z,0.90
2023-05-05T15:33:20.935Z,0.90
2023-05-05T15:43:24.961Z,1.00
2023-05-05T15:53:28.896Z,0.90
2023-05-05T16:03:32.824Z,1.20
2023-05-05T16:13:39.192Z,1.00
2023-05-05T16:18:41.400Z,1.10
2023-05-05T16:23:43.606Z,1.00
2023-05-05T16:28:45.702Z,1.10
2023-05-05T16:38:49.898Z,1.00
2023-05-05T16:43:52.515Z,0.80
2023-05-05T16:48:54.680Z,1.17
2023-05-05T16:58:58.579Z,0.90
2023-05-05T17:04:02.529Z,1.00
2023-05-05T17:09:06.289Z,1.38
2023-05-05T17:14:08.348Z,1.13
2023-05-05T17:19:10.440Z,1.05
2023-05-05T17:24:12.632Z,1.35
2023-05-05T17:29:19.924Z,1.60
2023-05-05T17:34:22.184Z,1.30
2023-05-05T17:39:24.347Z,1.67
2023-05-05T17:44:26.439Z,1.40
2023-05-05T17:54:30.630Z,1.42
2023-05-05T17:59:32.772Z,1.25
2023-05-05T18:04:38.150Z,1.70
2023-05-05T18:09:41.143Z,1.50
2023-05-05T18:14:43.201Z,1.20
2023-05-05T18:19:47.294Z,1.85
2023-05-05T18:24:51.174Z,1.83
2023-05-05T18:29:53.454Z,1.90
2023-05-05T18:34:55.634Z,1.83
2023-05-05T18:39:57.833Z,2.15
2023-05-05T18:44:59.893Z,2.33
2023-05-05T18:50:02.027Z,2.25
2023-05-05T18:55:05.770Z,2.50
2023-05-05T19:00:09.371Z,3.13
2023-05-05T19:05:11.929Z,2.60
2023-05-05T19:10:14.292Z,2.53
2023-05-05T19:15:16.389Z,2.60
2023-05-05T19:20:18.526Z,3.00
2023-05-05T19:25:20.651Z,2.47
2023-05-05T19:30:22.832Z,2.60
2023-05-05T19:35:24.883Z,2.20
2023-05-05T19:40:27.035Z,2.15
2023-05-05T19:45:29.220Z,2.40
2023-05-05T19:50:31.745Z,2.53
2023-05-05T19:55:33.922Z,4.60
2023-05-05T20:00:36.142Z,1.90
2023-05-05T20:05:38.282Z,2.17
2023-05-05T20:10:40.456Z,1.80
2023-05-05T20:15:42.553Z,2.00
2023-05-05T20:20:44.688Z,1.80
2023-05-05T20:25:46.784Z,1.60
2023-05-05T20:30:48.938Z,1.77
2023-05-05T20:35:51.068Z,1.30
2023-05-05T20:40:53.204Z,1.20
2023-05-05T20:45:55.338Z,1.50
2023-05-05T20:50:58.921Z,1.13
2023-05-05T20:56:01.042Z,1.10
2023-05-05T21:01:03.264Z,1.30
2023-05-05T21:06:05.634Z,1.27
2023-05-05T21:11:10.633Z,0.80
2023-05-05T21:16:12.717Z,0.60
2023-05-05T21:21:14.763Z,0.90
2023-05-05T21:26:16.905Z,0.70
2023-05-05T21:31:22.205Z,0.88
2023-05-05T21:36:24.900Z,0.88
2023-05-05T21:41:27.133Z,0.88
2023-05-05T21:46:29.193Z,0.85
2023-05-05T21:51:31.416Z,1.00
2023-05-05T21:56:34.135Z,0.90
2023-05-05T22:01:36.969Z,0.60
2023-05-05T22:06:39.051Z,0.60
2023-05-05T22:11:41.089Z,0.90
2023-05-05T22:16:43.351Z,0.68
2023-05-05T22:21:45.413Z,0.80
2023-05-05T22:26:47.457Z,0.60
2023-05-05T22:31:49.581Z,0.80
2023-05-05T22:36:51.730Z,0.60
2023-05-05T22:41:53.752Z,0.68
2023-05-05T22:46:55.969Z,0.70
2023-05-05T22:51:58.564Z,0.85
2023-05-05T22:57:00.619Z,0.63
2023-05-05T23:02:02.804Z,0.80
2023-05-05T23:07:04.894Z,0.80
2023-05-05T23:12:07.095Z,0.60
2023-05-05T23:17:09.462Z,0.70
2023-05-05T23:22:11.538Z,0.77
2023-05-05T23:27:13.856Z,0.57
2023-05-05T23:32:15.918Z,1.10
2023-05-05T23:37:18.077Z,0.80
2023-05-05T23:42:20.212Z,0.55
2023-05-05T23:47:22.302Z,0.70
2023-05-05T23:52:24.419Z,0.47
2023-05-05T23:57:26.866Z,0.60
